Airfield :
LOGIN :

Register | Disclaimer

   EN    FR    IT 

 










Legend :    VFR   Marginal VFR   IFR   Intensive IFR   Very Intensive IFR
Visi :
Ceiling :
>= 8 km
>= 3000ft
5 to 8 km
1000 to 3000 ft
1500m to 5 km
500 to 1000 ft
800 to 1500m
200 to 500 ft
< 800m
< 200 ft
Symbols :   Thunderstorms  Fog  Heavy snow  Heavy precipitations  Wind > 20 kt
SIGMETs :     Misc.  Thunderstorms  Icing  Turbulence  Mountain Waves  Volcanic Ashes






- Airport Elevation : 297 ft


EGVP - Middle Wallop

CURRENT METAR :
  • 051926Z 23013KT 9999 -RA BKN042 09/06 Q1015 BECMG BKN020 RMK BLU BECMG WHT

EXPIRED METARs :
  • 051850Z 23011KT CAVOK 09/06 Q1015 BECMG BKN020 RMK BLU BECMG WHT
  • 051825Z 23011KT CAVOK 09/06 Q1016 BECMG BKN020 RMK BLU BECMG WHT
  • 051750Z 23008KT CAVOK 09/06 Q1016 BECMG BKN020 RMK BLU BECMG WHT
  • 051725Z 22010KT CAVOK 08/06 Q1016 BECMG BKN020 RMK BLU BECMG WHT
  • 051650Z 22009KT 9999 -RA BKN130 08/06 Q1016 NOSIG RMK BLU BLU

TAF AMD TAF EGVP
Valid from the 05 at 18:00 until the 06 at 00:00 UTC


051806Z 0518/0524 22012KT 9999 BKN045
BECMG 0518/0520 BKN020
PROB30
TEMPO 0518/0524 22015G25KT
BECMG 0520/0522 BKN011
PROB30
TEMPO 0521/0523 5000 -RADZ
TEMPO 0523/0524 4000 RADZ BKN006
ATIS : +44 1980 674 142



MET'MAP, your aeronautical weather chart ! - Copyright ORBIFLY December 2007 - Disclaimer

ORBIFLY MET'MAP TEAM :

Programming & Development : Alexandra Zaïnal
Concept & original design : Baudouin d'Aumeries
Assistance for programming : Marc-Olivier Méhu
Technical & hardware support : Manuel Goepfert

Contact : metmap@orbifly.com




SOURCES & CREDITS :

   NOAA